createdAt,value
2022-10-30T00:01:01.702Z,100471.47
2022-10-30T00:05:58.131Z,100475.97
2022-10-30T00:10:54.566Z,100475.13
2022-10-30T00:15:52.610Z,100469.53
2022-10-30T00:20:49.426Z,100462.91
2022-10-30T00:25:45.995Z,100458.81
2022-10-30T00:30:42.354Z,100456.31
2022-10-30T00:35:38.774Z,100461.25
2022-10-30T00:40:35.115Z,100455.16
2022-10-30T00:45:31.472Z,100458.56
2022-10-30T00:50:32.443Z,100465.31
2022-10-30T00:55:34.934Z,100459.56
2022-10-30T01:00:31.734Z,100453.91
2022-10-30T01:05:30.476Z,100451.84
2022-10-30T01:10:26.890Z,100455.50
2022-10-30T01:15:40.396Z,100459.44
2022-10-30T01:20:42.767Z,100456.06
2022-10-30T01:25:44.928Z,100460.28
2022-10-30T01:31:09.311Z,100465.66
2022-10-30T01:36:20.654Z,100462.00
2022-10-30T01:41:17.058Z,100463.09
2022-10-30T01:46:37.600Z,100463.13
2022-10-30T01:51:40.071Z,100462.69
2022-10-30T01:56:36.339Z,100457.91
2022-10-30T02:01:35.560Z,100453.25
2022-10-30T02:06:32.040Z,100455.94
2022-10-30T02:11:29.662Z,100441.13
2022-10-30T02:16:27.268Z,100438.72
2022-10-30T02:21:23.660Z,100436.63
2022-10-30T02:26:20.056Z,100445.91
2022-10-30T02:31:16.443Z,100441.25
2022-10-30T02:36:15.365Z,100445.63
2022-10-30T02:41:12.077Z,100439.53
2022-10-30T02:46:08.522Z,100439.28
2022-10-30T02:51:05.368Z,100437.69
2022-10-30T02:56:10.330Z,100441.75
2022-10-30T03:06:25.879Z,100436.16
2022-10-30T03:11:22.319Z,100436.56
2022-10-30T03:16:21.781Z,100442.09
2022-10-30T03:21:21.353Z,100444.31
2022-10-30T03:26:18.946Z,100435.84
2022-10-30T03:31:18.111Z,100434.56
2022-10-30T03:36:15.331Z,100423.72
2022-10-30T03:41:11.706Z,100441.53
2022-10-30T03:46:09.752Z,100440.53
2022-10-30T03:51:06.383Z,100432.00
2022-10-30T03:56:04.719Z,100447.06
2022-10-30T04:01:05.635Z,100451.13
2022-10-30T04:06:02.748Z,100448.03
2022-10-30T04:10:59.257Z,100452.34
2022-10-30T04:15:58.323Z,100442.81
2022-10-30T04:20:55.797Z,100445.88
2022-10-30T04:25:52.174Z,100440.69
2022-10-30T04:30:49.046Z,100443.28
2022-10-30T04:35:45.429Z,100445.50
2022-10-30T04:40:45.565Z,100448.53
2022-10-30T04:45:42.538Z,100444.22
2022-10-30T04:50:39.046Z,100448.41
2022-10-30T04:55:35.477Z,100446.56
2022-10-30T05:00:32.071Z,100444.19
2022-10-30T05:05:29.894Z,100450.25
2022-10-30T05:10:26.301Z,100447.25
2022-10-30T05:15:22.726Z,100445.63
2022-10-30T05:20:19.752Z,100448.56
2022-10-30T05:25:16.252Z,100448.88
2022-10-30T05:30:12.776Z,100450.75
2022-10-30T05:35:09.191Z,100446.50
2022-10-30T05:40:06.354Z,100456.06
2022-10-30T05:45:02.975Z,100458.75
2022-10-30T05:49:59.374Z,100473.19
2022-10-30T05:54:55.848Z,100463.25
2022-10-30T05:59:52.209Z,100466.53
2022-10-30T06:04:48.570Z,100475.38
2022-10-30T06:09:44.971Z,100479.50
2022-10-30T06:14:41.330Z,100481.91
2022-10-30T06:19:37.666Z,100480.50
2022-10-30T06:24:34.028Z,100473.38
2022-10-30T06:29:30.395Z,100477.97
2022-10-30T06:34:27.203Z,100476.50
2022-10-30T06:39:23.588Z,100479.03
2022-10-30T06:44:20.112Z,100481.59
2022-10-30T06:49:16.467Z,100487.28
2022-10-30T06:54:12.872Z,100488.88
2022-10-30T06:59:10.643Z,100477.09
2022-10-30T07:04:06.987Z,100479.50
2022-10-30T07:09:03.481Z,100479.13
2022-10-30T07:14:00.129Z,100477.53
2022-10-30T07:18:59.345Z,100482.63
2022-10-30T07:23:58.720Z,100477.28
2022-10-30T07:28:55.136Z,100476.53
2022-10-30T07:33:51.493Z,100499.41
2022-10-30T07:38:48.829Z,100491.97
2022-10-30T07:43:46.136Z,100500.59
2022-10-30T07:48:42.495Z,100489.06
2022-10-30T07:53:38.829Z,100492.28
2022-10-30T07:58:35.217Z,100499.00
2022-10-30T08:03:31.621Z,100501.38
2022-10-30T08:08:28.011Z,100503.38
2022-10-30T08:13:24.475Z,100500.28
2022-10-30T08:18:20.890Z,100506.72
2022-10-30T08:23:19.686Z,100519.38
2022-10-30T08:28:16.080Z,100516.72
2022-10-30T08:33:16.371Z,100535.41
2022-10-30T08:38:12.752Z,100535.06
2022-10-30T08:43:09.458Z,100545.88
2022-10-30T08:48:06.559Z,100543.69
2022-10-30T08:53:08.305Z,100545.88
2022-10-30T08:58:04.952Z,100540.13
2022-10-30T09:03:02.100Z,100544.91
2022-10-30T09:08:01.691Z,100536.53
2022-10-30T09:13:01.803Z,100535.06
2022-10-30T09:18:00.491Z,100532.47
2022-10-30T09:22:57.748Z,100515.84
2022-10-30T09:27:54.559Z,100516.03
2022-10-30T09:32:55.315Z,100516.38
2022-10-30T09:37:51.992Z,100522.25
2022-10-30T09:42:50.520Z,100522.56
2022-10-30T09:48:08.105Z,100515.16
2022-10-30T09:53:13.330Z,100502.31
2022-10-30T09:58:22.846Z,100503.81
2022-10-30T10:04:20.947Z,100499.56
2022-10-30T10:09:23.633Z,100504.91
2022-10-30T10:14:32.514Z,100511.84
2022-10-30T10:19:55.524Z,100511.16
2022-10-30T10:24:54.352Z,100513.06
2022-10-30T10:30:01.455Z,100504.81
2022-10-30T10:35:03.712Z,100504.56
2022-10-30T10:40:18.208Z,100518.38
2022-10-30T10:45:33.490Z,100510.59
2022-10-30T10:50:33.964Z,100510.13
2022-10-30T10:55:36.695Z,100489.88
2022-10-30T11:00:33.518Z,100485.44
2022-10-30T11:05:41.775Z,100484.16
2022-10-30T11:10:38.307Z,100474.97
2022-10-30T11:15:49.819Z,100468.50
2022-10-30T11:21:00.419Z,100463.44
2022-10-30T11:25:56.816Z,100449.63
2022-10-30T11:31:22.282Z,100442.53
2022-10-30T11:36:23.435Z,100437.31
2022-10-30T11:41:20.775Z,100443.75
2022-10-30T11:46:23.346Z,100450.38
2022-10-30T11:51:31.693Z,100443.53
2022-10-30T11:56:34.253Z,100439.19
2022-10-30T12:01:34.788Z,100448.19
2022-10-30T12:06:31.235Z,100444.25
2022-10-30T12:11:32.595Z,100447.69
2022-10-30T12:16:30.360Z,100430.59
2022-10-30T12:21:29.591Z,100424.47
2022-10-30T12:26:26.507Z,100427.94
2022-10-30T12:31:46.606Z,100420.69
2022-10-30T12:36:52.185Z,100420.84
2022-10-30T12:41:56.906Z,100424.31
2022-10-30T12:46:53.281Z,100427.31
2022-10-30T12:51:51.830Z,100428.16
2022-10-30T12:56:54.331Z,100423.69
2022-10-30T13:02:04.726Z,100422.97
2022-10-30T13:07:36.974Z,100418.41
2022-10-30T13:12:38.673Z,100415.56
2022-10-30T13:17:35.062Z,100414.34
2022-10-30T13:22:57.106Z,100406.13
2022-10-30T13:27:56.697Z,100405.75
2022-10-30T13:33:00.713Z,100397.06
2022-10-30T13:38:21.852Z,100396.69
2022-10-30T13:43:43.180Z,100401.25
2022-10-30T13:48:58.157Z,100404.38
2022-10-30T13:54:03.401Z,100410.22
2022-10-30T13:59:21.218Z,100400.31
2022-10-30T14:04:33.710Z,100397.19
2022-10-30T14:09:35.447Z,100393.75
2022-10-30T14:14:32.003Z,100388.78
2022-10-30T14:19:28.363Z,100384.41
2022-10-30T14:24:29.144Z,100381.88
2022-10-30T14:29:34.751Z,100381.81
2022-10-30T14:34:50.153Z,100381.66
2022-10-30T14:39:47.130Z,100378.81
2022-10-30T14:44:43.438Z,100372.69
2022-10-30T14:49:59.589Z,100377.50
2022-10-30T14:55:18.820Z,100375.75
2022-10-30T15:00:24.439Z,100372.97
2022-10-30T15:05:51.362Z,100383.09
2022-10-30T15:11:18.841Z,100369.34
2022-10-30T15:16:16.907Z,100377.25
2022-10-30T15:21:23.074Z,100377.78
2022-10-30T15:26:23.291Z,100376.47
2022-10-30T15:31:25.906Z,100384.34
2022-10-30T15:36:25.885Z,100378.50
2022-10-30T15:41:22.260Z,100377.09
2022-10-30T15:46:18.704Z,100376.94
2022-10-30T15:51:20.983Z,100376.22
2022-10-30T15:56:54.318Z,100373.31
2022-10-30T16:01:58.197Z,100373.19
2022-10-30T16:07:00.084Z,100367.75
2022-10-30T16:11:59.469Z,100368.25
2022-10-30T16:16:59.932Z,100372.16
2022-10-30T16:21:58.551Z,100370.06
2022-10-30T16:27:15.314Z,100374.69
2022-10-30T16:32:18.991Z,100364.59
2022-10-30T16:37:27.576Z,100366.94
2022-10-30T16:42:25.983Z,100364.41
2022-10-30T16:47:25.847Z,100375.28
2022-10-30T16:52:30.756Z,100371.63
2022-10-30T16:57:30.091Z,100379.69
2022-10-30T17:02:30.520Z,100395.56
2022-10-30T17:07:27.780Z,100398.84
2022-10-30T17:12:26.494Z,100407.44
2022-10-30T17:17:30.113Z,100419.75
2022-10-30T17:22:27.520Z,100415.25
2022-10-30T17:27:48.952Z,100429.91
2022-10-30T17:32:45.414Z,100437.13
2022-10-30T17:37:41.967Z,100447.31
2022-10-30T17:42:38.957Z,100451.97
2022-10-30T17:47:35.296Z,100459.84
2022-10-30T17:52:33.016Z,100467.91
2022-10-30T17:57:29.393Z,100478.31
2022-10-30T18:02:25.917Z,100472.69
2022-10-30T18:07:22.296Z,100485.63
2022-10-30T18:12:19.238Z,100484.50
2022-10-30T18:17:15.570Z,100489.41
2022-10-30T18:22:13.795Z,100496.00
2022-10-30T18:27:10.149Z,100495.94
2022-10-30T18:32:09.688Z,100505.47
2022-10-30T18:37:06.310Z,100504.47
2022-10-30T18:42:02.679Z,100514.97
2022-10-30T18:47:02.933Z,100516.34
2022-10-30T18:51:59.808Z,100533.19
2022-10-30T18:56:56.129Z,100539.91
2022-10-30T19:01:52.636Z,100536.25
2022-10-30T19:06:49.552Z,100537.03
2022-10-30T19:11:45.892Z,100537.00
2022-10-30T19:16:42.276Z,100538.03
2022-10-30T19:21:38.725Z,100547.53
2022-10-30T19:26:35.110Z,100557.88
2022-10-30T19:31:31.487Z,100562.31
2022-10-30T19:36:29.781Z,100570.38
2022-10-30T19:41:26.527Z,100571.63
2022-10-30T19:46:22.987Z,100575.47
2022-10-30T19:51:19.440Z,100574.50
2022-10-30T19:56:17.624Z,100574.06
2022-10-30T20:01:14.648Z,100578.91
2022-10-30T20:06:12.984Z,100572.19
2022-10-30T20:11:09.286Z,100570.28
2022-10-30T20:16:06.111Z,100568.09
2022-10-30T20:21:05.495Z,100575.13
2022-10-30T20:26:05.026Z,100589.41
2022-10-30T20:31:01.841Z,100593.06
2022-10-30T20:35:58.418Z,100613.78
2022-10-30T20:40:55.363Z,100616.44
2022-10-30T20:45:51.700Z,100636.06
2022-10-30T20:50:50.784Z,100637.13
2022-10-30T20:55:47.407Z,100649.75
2022-10-30T21:00:43.858Z,100659.91
2022-10-30T21:05:44.362Z,100672.38
2022-10-30T21:10:42.266Z,100678.28
2022-10-30T21:15:44.337Z,100693.91
2022-10-30T21:20:43.467Z,100688.47
2022-10-30T21:25:39.815Z,100691.59
2022-10-30T21:30:36.184Z,100696.78
2022-10-30T21:35:32.519Z,100703.44
2022-10-30T21:40:28.842Z,100700.00
2022-10-30T21:45:25.202Z,100695.59
2022-10-30T21:50:21.538Z,100690.09
2022-10-30T21:55:17.886Z,100691.28
2022-10-30T22:00:15.006Z,100689.00
2022-10-30T22:05:11.343Z,100704.34
2022-10-30T22:10:08.229Z,100707.16
2022-10-30T22:15:05.380Z,100702.34
2022-10-30T22:20:01.793Z,100700.63
2022-10-30T22:24:58.143Z,100705.84
2022-10-30T22:29:54.498Z,100702.91
2022-10-30T22:34:50.886Z,100708.91
2022-10-30T22:39:47.262Z,100708.19
2022-10-30T22:44:43.687Z,100704.34
2022-10-30T22:49:40.075Z,100706.50
2022-10-30T22:54:36.433Z,100715.91
2022-10-30T22:59:32.845Z,100714.81
2022-10-30T23:04:29.232Z,100734.25
2022-10-30T23:09:25.628Z,100736.81
2022-10-30T23:14:22.012Z,100735.03
2022-10-30T23:19:18.408Z,100729.09
2022-10-30T23:24:14.760Z,100740.44
2022-10-30T23:29:11.146Z,100741.09
2022-10-30T23:34:11.016Z,100747.75
2022-10-30T23:39:11.241Z,100754.47
2022-10-30T23:44:12.202Z,100761.63
2022-10-30T23:49:08.655Z,100766.22
2022-10-30T23:54:05.369Z,100772.72
2022-10-30T23:59:01.825Z,100781.09
